WAQQ

Juwata Airport

Juwata, Indonesia
TAF WAQQ 211700Z 2118/2206 00000KT 8000 SCT015 TEMPO 2118/2121 5000 TSRA FEW015CB
Issued Valid From Valid To
Jan-21 @ 17:00 UTC
(8 hours ago)
Jan-21 @ 18:00 UTC
(7 hours ago)
Jan-22 @ 06:00 UTC
(in 5 hours)
Jan-21 @ 18:00 to Jan-22 @ 06:00
TAF WAQQ 211700Z 2118/2206 00000KT 8000 SCT015
Visibility Clouds
7,998 meters
  • Scattered at 1,500' AGL
Expired Click to View Jan-21 @ 18:00 to Jan-21 @ 21:00
TEMPO 2118/2121 5000 TSRA FEW015CB
Visibility Clouds Conditions
5,005 meters
  • Few at 1,500' AGL
  • Thunderstorm
  • Rain
TAF WAQQ 211700Z 2118/2206 00000KT 8000 SCT015 TEMPO 2118/2121 5000 TSRA FEW015CB
Issued Jan-21 @ 17:00 UTC
(8 hours ago)
Valid From Jan-21 @ 18:00 UTC
(7 hours ago)
Valid To Jan-22 @ 06:00 UTC
(in 5 hours)
Jan-21 @ 18:00 - Jan-22 @ 06:00
Clouds
  • Scattered at 1,500' AGL
Jan-21 @ 18:00 - Jan-21 @ 21:00
Clouds
  • Few at 1,500' AGL
Conditions
  • Thunderstorm
  • Rain